createdAt,value
2017-06-05T00:00:23.614Z,0
2017-06-05T00:00:55.877Z,0
2017-06-05T00:01:28.200Z,0
2017-06-05T00:02:00.474Z,0
2017-06-05T00:02:32.734Z,0
2017-06-05T00:03:05.011Z,0
2017-06-05T00:03:37.292Z,0
2017-06-05T00:04:09.577Z,0
2017-06-05T00:04:41.905Z,0
2017-06-05T00:05:14.178Z,0
2017-06-05T00:05:46.474Z,0
2017-06-05T00:06:18.766Z,0
2017-06-05T00:06:51.050Z,0
2017-06-05T00:07:23.325Z,0
2017-06-05T00:07:55.605Z,0
2017-06-05T00:08:27.884Z,0
2017-06-05T00:09:00.171Z,0
2017-06-05T00:09:32.449Z,0
2017-06-05T00:10:04.729Z,0
2017-06-05T00:10:36.999Z,0
2017-06-05T00:11:09.282Z,0
2017-06-05T00:11:41.565Z,0
2017-06-05T00:12:13.846Z,0
2017-06-05T00:12:46.124Z,0
2017-06-05T00:13:18.399Z,0
2017-06-05T00:13:50.680Z,0
2017-06-05T00:14:22.940Z,0
2017-06-05T00:14:55.233Z,0
2017-06-05T00:15:27.540Z,0
2017-06-05T00:15:59.828Z,0
2017-06-05T00:16:32.110Z,0
2017-06-05T00:17:04.403Z,0
2017-06-05T00:17:36.684Z,0
2017-06-05T00:18:08.968Z,0
2017-06-05T00:18:41.263Z,0
2017-06-05T00:19:13.550Z,0
2017-06-05T00:19:45.830Z,0
2017-06-05T00:20:18.117Z,0
2017-06-05T00:20:50.401Z,0
2017-06-05T00:21:22.678Z,0
2017-06-05T00:21:54.956Z,0
2017-06-05T00:22:27.242Z,0
2017-06-05T00:22:59.519Z,0
2017-06-05T00:23:31.797Z,0
2017-06-05T00:24:04.075Z,0
2017-06-05T00:24:36.352Z,0
2017-06-05T00:25:08.640Z,0
2017-06-05T00:25:40.949Z,0
2017-06-05T00:26:13.232Z,0
2017-06-05T00:26:45.520Z,0
2017-06-05T00:27:17.810Z,0
2017-06-05T00:27:50.087Z,0
2017-06-05T00:28:22.368Z,0
2017-06-05T00:28:54.676Z,0
2017-06-05T00:29:26.956Z,0
2017-06-05T00:29:59.244Z,0
2017-06-05T00:30:31.516Z,0
2017-06-05T00:31:03.791Z,0
2017-06-05T00:31:36.076Z,0
2017-06-05T00:32:08.354Z,0
2017-06-05T00:32:40.631Z,0
2017-06-05T00:33:12.939Z,0
2017-06-05T00:33:45.245Z,0
2017-06-05T00:34:17.530Z,0
2017-06-05T00:34:49.811Z,0
2017-06-05T00:35:22.082Z,0
2017-06-05T00:35:54.352Z,0
2017-06-05T00:36:26.623Z,0
2017-06-05T00:36:58.915Z,0
2017-06-05T00:37:31.194Z,0
2017-06-05T00:38:03.466Z,0
2017-06-05T00:38:35.775Z,0
2017-06-05T00:39:08.055Z,0
2017-06-05T00:39:40.331Z,0
2017-06-05T00:40:12.617Z,0
2017-06-05T00:40:44.886Z,0
2017-06-05T00:41:17.159Z,0
2017-06-05T00:41:49.447Z,0
2017-06-05T00:42:21.707Z,0
2017-06-05T00:42:53.988Z,0
2017-06-05T00:43:26.286Z,0
2017-06-05T00:43:58.602Z,0
2017-06-05T00:44:30.873Z,0
2017-06-05T00:45:03.178Z,0
2017-06-05T00:45:35.462Z,0
2017-06-05T00:46:07.738Z,0
2017-06-05T00:46:40.007Z,0
2017-06-05T00:47:12.278Z,0
2017-06-05T00:47:44.554Z,0
2017-06-05T00:48:16.847Z,0
2017-06-05T00:48:49.132Z,0
2017-06-05T00:49:21.424Z,0
2017-06-05T00:49:53.718Z,0
2017-06-05T00:50:26.006Z,0
2017-06-05T00:50:58.280Z,0
2017-06-05T00:51:30.564Z,0
2017-06-05T00:52:02.838Z,0
2017-06-05T00:52:35.108Z,0
2017-06-05T00:53:07.350Z,0
2017-06-05T00:53:39.599Z,0
2017-06-05T00:54:11.993Z,0
2017-06-05T00:54:44.255Z,0
2017-06-05T00:55:16.496Z,0
2017-06-05T00:55:48.738Z,0
2017-06-05T00:56:21.738Z,0
2017-06-05T00:56:53.987Z,0
2017-06-05T00:57:26.234Z,0
2017-06-05T00:57:58.537Z,0
2017-06-05T00:58:30.798Z,0
2017-06-05T00:59:03.756Z,0
2017-06-05T00:59:36.026Z,0
2017-06-05T01:00:08.272Z,0
2017-06-05T01:00:40.514Z,0
2017-06-05T01:01:12.783Z,0
2017-06-05T01:01:45.721Z,0
2017-06-05T01:02:17.971Z,0
2017-06-05T01:02:50.247Z,0
2017-06-05T01:03:22.547Z,0
2017-06-05T01:03:54.818Z,0
2017-06-05T01:04:27.105Z,0
2017-06-05T01:04:59.396Z,0
2017-06-05T01:05:31.673Z,0
2017-06-05T01:06:03.956Z,0
2017-06-05T01:06:36.228Z,0
2017-06-05T01:07:08.517Z,0
2017-06-05T01:07:40.800Z,0
2017-06-05T01:08:13.084Z,0
2017-06-05T01:08:45.364Z,0
2017-06-05T01:09:17.682Z,0
2017-06-05T01:09:49.959Z,0
2017-06-05T01:10:22.233Z,0
2017-06-05T01:10:54.507Z,0
2017-06-05T01:11:26.777Z,0
2017-06-05T01:11:59.064Z,0
2017-06-05T01:12:31.352Z,0
2017-06-05T01:13:03.637Z,0
2017-06-05T01:13:35.920Z,0
2017-06-05T01:14:08.199Z,0
2017-06-05T01:14:40.477Z,0
2017-06-05T01:15:12.787Z,0
2017-06-05T01:15:45.073Z,0
2017-06-05T01:16:17.351Z,0
2017-06-05T01:16:49.627Z,0
2017-06-05T01:17:21.908Z,0
2017-06-05T01:17:54.180Z,0
2017-06-05T01:18:26.448Z,0
2017-06-05T01:18:58.719Z,0
2017-06-05T01:19:30.985Z,0
2017-06-05T01:20:03.280Z,0
2017-06-05T01:20:35.560Z,0
2017-06-05T01:21:07.832Z,0
2017-06-05T01:21:40.107Z,0
2017-06-05T01:22:12.380Z,0
2017-06-05T01:22:44.660Z,0
2017-06-05T01:23:16.942Z,0
2017-06-05T01:23:49.228Z,0
2017-06-05T01:24:21.509Z,0
2017-06-05T01:24:53.797Z,0
2017-06-05T01:25:26.080Z,0
2017-06-05T01:25:58.364Z,0
2017-06-05T01:26:30.648Z,0
2017-06-05T01:27:02.913Z,0
2017-06-05T01:27:35.187Z,0
2017-06-05T01:28:07.471Z,0
2017-06-05T01:28:39.746Z,0
2017-06-05T01:29:12.034Z,0
2017-06-05T01:29:44.313Z,0
2017-06-05T01:30:16.582Z,0
2017-06-05T01:30:48.867Z,0
2017-06-05T01:31:21.151Z,0
2017-06-05T01:31:53.424Z,0
2017-06-05T01:32:25.701Z,0
2017-06-05T01:32:57.975Z,0
2017-06-05T01:33:30.246Z,0
2017-06-05T01:34:02.513Z,0
2017-06-05T01:34:34.808Z,0
2017-06-05T01:35:07.080Z,0
2017-06-05T01:35:39.346Z,0
2017-06-05T01:36:11.640Z,0
2017-06-05T01:36:43.935Z,0
2017-06-05T01:37:16.228Z,0
2017-06-05T01:37:48.505Z,0
2017-06-05T01:38:20.772Z,0
2017-06-05T01:38:53.047Z,0
2017-06-05T01:39:25.324Z,0
2017-06-05T01:39:57.607Z,0
2017-06-05T01:40:29.881Z,0
2017-06-05T01:41:02.166Z,0
2017-06-05T01:41:34.448Z,0
2017-06-05T01:42:06.730Z,0
2017-06-05T01:42:39.004Z,0
2017-06-05T01:43:11.246Z,0
2017-06-05T01:43:43.507Z,0
2017-06-05T01:44:15.768Z,0
2017-06-05T01:44:48.053Z,0
2017-06-05T01:45:20.333Z,0
2017-06-05T01:45:52.596Z,0
2017-06-05T01:46:24.866Z,0
2017-06-05T01:46:57.114Z,0
2017-06-05T01:47:29.364Z,0
2017-06-05T01:48:01.633Z,0
2017-06-05T01:48:33.908Z,0
2017-06-05T01:49:06.201Z,0
2017-06-05T01:49:38.458Z,0
2017-06-05T01:50:10.711Z,0
2017-06-05T01:50:42.965Z,0
2017-06-05T01:51:15.243Z,0
2017-06-05T01:51:47.485Z,0
2017-06-05T01:52:19.741Z,0
2017-06-05T01:52:52.003Z,0
2017-06-05T01:53:24.276Z,0
2017-06-05T01:53:56.567Z,0
2017-06-05T01:54:28.853Z,0
2017-06-05T01:55:01.112Z,0
2017-06-05T01:55:33.370Z,0
2017-06-05T01:56:05.641Z,0
2017-06-05T01:56:37.895Z,0
2017-06-05T01:57:10.147Z,0
2017-06-05T01:57:42.411Z,0
2017-06-05T01:58:14.668Z,0
2017-06-05T01:58:47.809Z,0
2017-06-05T01:59:20.075Z,0
2017-06-05T01:59:52.322Z,0
2017-06-05T02:00:24.576Z,0
2017-06-05T02:00:56.828Z,0
2017-06-05T02:01:29.074Z,0
2017-06-05T02:02:01.312Z,0
2017-06-05T02:02:33.570Z,0
2017-06-05T02:03:05.841Z,0
2017-06-05T02:03:38.116Z,0
2017-06-05T02:04:10.395Z,0
2017-06-05T02:04:42.674Z,0
2017-06-05T02:05:14.959Z,0
2017-06-05T02:05:47.236Z,0
2017-06-05T02:06:19.514Z,0
2017-06-05T02:06:51.798Z,0
2017-06-05T02:07:24.076Z,0
2017-06-05T02:07:56.361Z,0
2017-06-05T02:08:28.665Z,0
2017-06-05T02:09:00.943Z,0
2017-06-05T02:09:33.223Z,0
2017-06-05T02:10:05.505Z,0
2017-06-05T02:10:37.784Z,0
2017-06-05T02:11:10.070Z,0
2017-06-05T02:11:42.349Z,0
2017-06-05T02:12:14.622Z,0
2017-06-05T02:12:46.920Z,0
2017-06-05T02:13:19.197Z,0
2017-06-05T02:13:51.471Z,0
2017-06-05T02:14:23.748Z,0
2017-06-05T02:14:56.024Z,0
2017-06-05T02:15:28.309Z,0
2017-06-05T02:16:00.576Z,0
2017-06-05T02:16:32.852Z,0
2017-06-05T02:17:05.120Z,0
2017-06-05T02:17:37.404Z,0
2017-06-05T02:18:09.688Z,0
2017-06-05T02:18:41.982Z,0
2017-06-05T02:19:14.268Z,0
2017-06-05T02:19:46.551Z,0
2017-06-05T02:20:18.821Z,0
2017-06-05T02:20:51.095Z,0
2017-06-05T02:21:23.375Z,0
2017-06-05T02:21:55.656Z,0
2017-06-05T02:22:27.945Z,0
2017-06-05T02:23:00.231Z,0
2017-06-05T02:23:32.508Z,0
2017-06-05T02:24:04.794Z,0
2017-06-05T02:24:37.074Z,0
2017-06-05T02:25:09.354Z,0
2017-06-05T02:25:41.636Z,0
2017-06-05T02:26:13.906Z,0
2017-06-05T02:26:46.179Z,0
2017-06-05T02:27:18.449Z,0
2017-06-05T02:27:50.726Z,0
2017-06-05T02:28:23.015Z,0
2017-06-05T02:28:55.291Z,0
2017-06-05T02:29:27.573Z,0
2017-06-05T02:29:59.862Z,0
2017-06-05T02:30:32.131Z,0
2017-06-05T02:31:04.420Z,0
2017-06-05T02:31:36.706Z,0
2017-06-05T02:32:08.984Z,0
2017-06-05T02:32:41.243Z,0
2017-06-05T02:33:13.495Z,0
2017-06-05T02:33:45.752Z,0
2017-06-05T02:34:18.003Z,0
2017-06-05T02:34:50.263Z,0
2017-06-05T02:35:22.502Z,0
2017-06-05T02:35:55.335Z,0
2017-06-05T02:36:27.600Z,0
2017-06-05T02:36:59.851Z,0
2017-06-05T02:37:32.104Z,0
2017-06-05T02:38:04.368Z,0
2017-06-05T02:38:36.632Z,0
2017-06-05T02:39:08.890Z,0
2017-06-05T02:39:41.769Z,0
2017-06-05T02:40:14.021Z,0
2017-06-05T02:40:46.279Z,0
2017-06-05T02:41:18.538Z,0
2017-06-05T02:41:50.796Z,0
2017-06-05T02:42:23.796Z,0
2017-06-05T02:42:56.044Z,0
2017-06-05T02:43:28.298Z,0
2017-06-05T02:44:01.289Z,0
2017-06-05T02:44:33.556Z,0
2017-06-05T02:45:05.804Z,0
2017-06-05T02:45:38.065Z,0
2017-06-05T02:46:10.328Z,0
2017-06-05T02:46:42.601Z,0
2017-06-05T02:47:14.854Z,0
2017-06-05T02:47:47.110Z,0
2017-06-05T02:48:19.358Z,0
2017-06-05T02:48:51.600Z,0
2017-06-05T02:49:23.970Z,0
2017-06-05T02:49:56.240Z,0
2017-06-05T02:50:28.490Z,0
2017-06-05T02:51:00.758Z,0
2017-06-05T02:51:33.003Z,0
2017-06-05T02:52:05.255Z,0
2017-06-05T02:52:37.545Z,0
2017-06-05T02:53:09.826Z,0
2017-06-05T02:53:42.122Z,0
2017-06-05T02:54:14.413Z,0
2017-06-05T02:54:46.687Z,0
2017-06-05T02:55:18.962Z,0
2017-06-05T02:55:51.234Z,0
2017-06-05T02:56:23.550Z,0
2017-06-05T02:56:55.831Z,0
2017-06-05T02:57:28.115Z,0
2017-06-05T02:58:00.401Z,0
2017-06-05T02:58:32.688Z,0
2017-06-05T02:59:04.978Z,0
2017-06-05T02:59:37.253Z,0
2017-06-05T03:00:09.524Z,0
2017-06-05T03:00:41.794Z,0
2017-06-05T03:01:14.073Z,0
2017-06-05T03:01:46.354Z,0
2017-06-05T03:02:18.629Z,0
2017-06-05T03:02:50.879Z,0
2017-06-05T03:03:23.789Z,0
2017-06-05T03:03:56.049Z,0
2017-06-05T03:04:28.323Z,0
2017-06-05T03:05:00.573Z,0
2017-06-05T03:05:32.826Z,0
2017-06-05T03:06:05.076Z,0
2017-06-05T03:06:37.331Z,0
2017-06-05T03:07:09.603Z,0
2017-06-05T03:07:41.854Z,0
2017-06-05T03:08:14.112Z,0
2017-06-05T03:08:46.372Z,0
2017-06-05T03:09:18.626Z,0
2017-06-05T03:09:50.903Z,0
2017-06-05T03:10:23.160Z,0
2017-06-05T03:10:55.407Z,0
2017-06-05T03:11:27.650Z,0
2017-06-05T03:11:59.900Z,0
2017-06-05T03:12:32.165Z,0
2017-06-05T03:13:04.436Z,0
2017-06-05T03:13:36.728Z,5
2017-06-05T03:14:09.006Z,5
2017-06-05T03:14:41.285Z,5
2017-06-05T03:15:13.563Z,5
2017-06-05T03:15:45.836Z,5
2017-06-05T03:16:18.121Z,5
2017-06-05T03:16:50.402Z,5
2017-06-05T03:17:22.677Z,5
2017-06-05T03:17:54.953Z,5
2017-06-05T03:18:27.234Z,5
2017-06-05T03:18:59.503Z,5
2017-06-05T03:19:31.804Z,5
2017-06-05T03:20:04.098Z,5
2017-06-05T03:20:36.378Z,5
2017-06-05T03:21:08.650Z,5
2017-06-05T03:21:40.944Z,5
2017-06-05T03:22:13.237Z,5
2017-06-05T03:22:45.560Z,5
2017-06-05T03:23:17.840Z,5
2017-06-05T03:23:50.117Z,5
2017-06-05T03:24:22.405Z,5
2017-06-05T03:24:54.697Z,5
2017-06-05T03:25:26.965Z,5
2017-06-05T03:25:59.241Z,5
2017-06-05T03:26:31.516Z,5
2017-06-05T03:27:03.783Z,5
2017-06-05T03:27:36.068Z,5
2017-06-05T03:28:08.353Z,5
2017-06-05T03:28:40.633Z,5
2017-06-05T03:29:12.922Z,5
2017-06-05T03:29:45.214Z,5
2017-06-05T03:30:17.525Z,5
2017-06-05T03:30:49.803Z,10
2017-06-05T03:31:22.069Z,10
2017-06-05T03:31:54.345Z,10
2017-06-05T03:32:26.631Z,10
2017-06-05T03:32:58.915Z,10
2017-06-05T03:33:31.195Z,10
2017-06-05T03:34:03.476Z,10
2017-06-05T03:34:35.782Z,10
2017-06-05T03:35:08.059Z,10
2017-06-05T03:35:40.341Z,10
2017-06-05T03:36:12.628Z,10
2017-06-05T03:36:44.921Z,10
2017-06-05T03:37:17.187Z,10
2017-06-05T03:37:49.474Z,10
2017-06-05T03:38:21.756Z,10
2017-06-05T03:38:54.034Z,10
2017-06-05T03:39:26.316Z,10
2017-06-05T03:39:58.588Z,10
2017-06-05T03:40:30.868Z,10
2017-06-05T03:41:03.148Z,10
2017-06-05T03:41:35.412Z,10
2017-06-05T03:42:07.681Z,10
2017-06-05T03:42:39.964Z,10
2017-06-05T03:43:12.254Z,10
2017-06-05T03:43:44.524Z,15
2017-06-05T03:44:16.807Z,15
2017-06-05T03:44:49.081Z,15
2017-06-05T03:45:21.360Z,15
2017-06-05T03:45:53.631Z,15
2017-06-05T03:46:25.908Z,15
2017-06-05T03:46:58.178Z,15
2017-06-05T03:47:30.457Z,15
2017-06-05T03:48:02.747Z,15
2017-06-05T03:48:35.027Z,15
2017-06-05T03:49:07.305Z,15
2017-06-05T03:49:39.584Z,15
2017-06-05T03:50:11.885Z,15
2017-06-05T03:50:44.165Z,15
2017-06-05T03:51:16.440Z,15
2017-06-05T03:51:48.719Z,15
2017-06-05T03:52:21.012Z,15
2017-06-05T03:52:53.302Z,15
2017-06-05T03:53:25.589Z,15
2017-06-05T03:53:57.865Z,15
2017-06-05T03:54:30.139Z,15
2017-06-05T03:55:02.418Z,15
2017-06-05T03:55:34.698Z,15
2017-06-05T03:56:06.978Z,20
2017-06-05T03:56:39.259Z,20
2017-06-05T03:57:11.565Z,20
2017-06-05T03:57:43.835Z,20
2017-06-05T03:58:16.118Z,20
2017-06-05T03:58:48.406Z,20
2017-06-05T03:59:20.692Z,20
2017-06-05T03:59:52.993Z,20
2017-06-05T04:00:25.274Z,20
2017-06-05T04:00:57.550Z,20
2017-06-05T04:01:29.821Z,20
2017-06-05T04:02:02.109Z,20
2017-06-05T04:02:34.385Z,20
2017-06-05T04:03:06.649Z,20
2017-06-05T04:03:38.919Z,20
2017-06-05T04:04:11.186Z,20
2017-06-05T04:04:43.515Z,20
2017-06-05T04:05:15.775Z,20
2017-06-05T04:05:48.019Z,20
2017-06-05T04:06:20.287Z,20
2017-06-05T04:06:52.532Z,20
2017-06-05T04:07:24.784Z,20
2017-06-05T04:07:57.113Z,25
2017-06-05T04:08:29.384Z,25
2017-06-05T04:09:01.686Z,25
2017-06-05T04:09:33.939Z,25
2017-06-05T04:10:06.208Z,25
2017-06-05T04:10:38.550Z,25
2017-06-05T04:11:10.809Z,25
2017-06-05T04:11:43.067Z,25
2017-06-05T04:12:15.304Z,25
2017-06-05T04:12:47.570Z,25
2017-06-05T04:13:19.815Z,25
2017-06-05T04:13:52.082Z,25
2017-06-05T04:14:24.319Z,25
2017-06-05T04:14:57.428Z,25
2017-06-05T04:15:29.687Z,30
2017-06-05T04:16:01.973Z,30
2017-06-05T04:16:34.232Z,30
2017-06-05T04:17:06.496Z,30
2017-06-05T04:17:38.740Z,30
2017-06-05T04:18:11.869Z,30
2017-06-05T04:18:44.878Z,30
2017-06-05T04:19:17.148Z,30
2017-06-05T04:19:49.403Z,30
2017-06-05T04:20:21.803Z,30
2017-06-05T04:20:54.831Z,30
2017-06-05T04:21:27.091Z,30
2017-06-05T04:21:59.341Z,30
2017-06-05T04:22:31.601Z,30
2017-06-05T04:23:03.859Z,30
2017-06-05T04:23:36.134Z,35
2017-06-05T04:24:09.249Z,35
2017-06-05T04:24:41.565Z,35
2017-06-05T04:25:13.833Z,35
2017-06-05T04:25:46.077Z,35
2017-06-05T04:26:18.328Z,35
2017-06-05T04:26:50.581Z,35
2017-06-05T04:27:22.844Z,35
2017-06-05T04:27:55.094Z,35
2017-06-05T04:28:28.272Z,35
2017-06-05T04:29:00.529Z,35
2017-06-05T04:29:32.794Z,35
2017-06-05T04:30:05.875Z,35
2017-06-05T04:30:38.138Z,35
2017-06-05T04:31:10.397Z,35
2017-06-05T04:31:42.648Z,35
2017-06-05T04:32:14.888Z,40
2017-06-05T04:32:47.164Z,40
2017-06-05T04:33:19.450Z,40
2017-06-05T04:33:51.734Z,40
2017-06-05T04:34:24.012Z,40
2017-06-05T04:34:56.294Z,40
2017-06-05T04:35:28.570Z,40
2017-06-05T04:36:00.836Z,40
2017-06-05T04:36:33.143Z,45
2017-06-05T04:37:05.430Z,45
2017-06-05T04:37:37.713Z,45
2017-06-05T04:38:10.008Z,45
2017-06-05T04:38:42.295Z,45
2017-06-05T04:39:14.579Z,50
2017-06-05T04:39:46.863Z,50
2017-06-05T04:40:19.144Z,50
2017-06-05T04:40:51.433Z,50
2017-06-05T04:41:23.716Z,50
2017-06-05T04:41:55.991Z,50
2017-06-05T04:42:28.269Z,50
2017-06-05T04:43:00.541Z,50
2017-06-05T04:43:32.805Z,50
2017-06-05T04:44:05.067Z,50
2017-06-05T04:44:37.842Z,50
2017-06-05T04:45:10.784Z,55
2017-06-05T04:45:43.051Z,55
2017-06-05T04:46:15.432Z,45
2017-06-05T04:46:47.704Z,50
2017-06-05T04:47:19.957Z,50
2017-06-05T04:47:52.226Z,50
2017-06-05T04:48:24.499Z,55
2017-06-05T04:48:56.803Z,55
2017-06-05T04:49:29.053Z,55
2017-06-05T04:50:01.293Z,55
2017-06-05T04:50:33.567Z,50
2017-06-05T04:51:05.814Z,55
2017-06-05T04:51:38.095Z,55
2017-06-05T04:52:10.379Z,55
2017-06-05T04:52:43.399Z,55
2017-06-05T04:53:15.659Z,55
2017-06-05T04:53:47.917Z,55
2017-06-05T04:54:20.780Z,55
2017-06-05T04:54:53.094Z,60
2017-06-05T04:55:25.363Z,60
2017-06-05T04:55:57.622Z,60
2017-06-05T04:56:29.888Z,60
2017-06-05T04:57:02.142Z,60
2017-06-05T04:57:34.402Z,65
2017-06-05T04:58:06.672Z,65
2017-06-05T04:58:38.919Z,70
2017-06-05T04:59:11.849Z,65
2017-06-05T04:59:44.104Z,70
2017-06-05T05:00:16.365Z,70
2017-06-05T05:00:48.627Z,70
2017-06-05T05:01:21.057Z,70
2017-06-05T05:01:53.311Z,70
2017-06-05T05:02:25.576Z,75
2017-06-05T05:02:57.870Z,75
2017-06-05T05:03:30.162Z,80
2017-06-05T05:04:02.450Z,80
2017-06-05T05:04:34.725Z,85
2017-06-05T05:05:07.014Z,80
2017-06-05T05:05:39.288Z,80
2017-06-05T05:06:11.582Z,85
2017-06-05T05:06:43.876Z,90
2017-06-05T05:07:16.161Z,90
2017-06-05T05:07:48.454Z,95
2017-06-05T05:08:20.741Z,90
2017-06-05T05:08:53.020Z,90
2017-06-05T05:09:25.307Z,90
2017-06-05T05:09:57.595Z,90
2017-06-05T05:10:29.864Z,90
2017-06-05T05:11:02.141Z,90
2017-06-05T05:11:34.408Z,85
2017-06-05T05:12:06.689Z,85
2017-06-05T05:12:38.971Z,80
2017-06-05T05:13:11.254Z,90
2017-06-05T05:13:43.539Z,85
2017-06-05T05:14:15.821Z,85
2017-06-05T05:14:48.116Z,85
2017-06-05T05:15:20.383Z,80
2017-06-05T05:15:52.665Z,80
2017-06-05T05:16:24.953Z,80
2017-06-05T05:16:57.227Z,80
2017-06-05T05:17:29.511Z,80
2017-06-05T05:18:01.792Z,85
2017-06-05T05:18:34.081Z,80
2017-06-05T05:19:06.366Z,75
2017-06-05T05:19:38.642Z,75
2017-06-05T05:20:10.929Z,80
2017-06-05T05:20:43.209Z,75
2017-06-05T05:21:15.489Z,75
2017-06-05T05:21:47.767Z,75
2017-06-05T05:22:20.036Z,70
2017-06-05T05:22:52.934Z,70
2017-06-05T05:23:25.194Z,70
2017-06-05T05:23:57.453Z,75
2017-06-05T05:24:29.709Z,75
2017-06-05T05:25:02.061Z,75
2017-06-05T05:25:34.327Z,75
2017-06-05T05:26:06.569Z,80
2017-06-05T05:26:38.855Z,80
2017-06-05T05:27:11.120Z,80
2017-06-05T05:27:44.315Z,80
2017-06-05T05:28:16.591Z,80
2017-06-05T05:28:48.839Z,85
2017-06-05T05:29:21.105Z,80
2017-06-05T05:29:53.362Z,80
2017-06-05T05:30:27.035Z,80
2017-06-05T05:30:59.311Z,80
2017-06-05T05:31:31.616Z,75
2017-06-05T05:32:03.858Z,80
2017-06-05T05:32:36.127Z,75
2017-06-05T05:33:08.419Z,75
2017-06-05T05:33:40.703Z,75
2017-06-05T05:34:12.984Z,75
2017-06-05T05:34:45.273Z,75
2017-06-05T05:35:17.551Z,80
2017-06-05T05:35:49.841Z,80
2017-06-05T05:36:22.122Z,80
2017-06-05T05:36:54.409Z,80
2017-06-05T05:37:26.689Z,80
2017-06-05T05:37:58.976Z,80
2017-06-05T05:38:31.260Z,80
2017-06-05T05:39:03.529Z,75
2017-06-05T05:39:35.812Z,80
2017-06-05T05:40:08.098Z,75
2017-06-05T05:40:40.382Z,75
2017-06-05T05:41:12.665Z,75
2017-06-05T05:41:44.941Z,75
2017-06-05T05:42:17.222Z,80
2017-06-05T05:42:49.498Z,75
2017-06-05T05:43:21.796Z,75
2017-06-05T05:43:54.082Z,75
2017-06-05T05:44:26.368Z,75
2017-06-05T05:44:58.646Z,75
2017-06-05T05:45:30.925Z,75
2017-06-05T05:46:03.200Z,75
2017-06-05T05:46:35.478Z,75
2017-06-05T05:47:07.757Z,75
2017-06-05T05:47:40.048Z,80
2017-06-05T05:48:12.343Z,80
2017-06-05T05:48:44.645Z,80
2017-06-05T05:49:16.932Z,80
2017-06-05T05:49:49.212Z,80
2017-06-05T05:50:21.493Z,80
2017-06-05T05:50:53.763Z,80
2017-06-05T05:51:26.048Z,80
2017-06-05T05:51:58.330Z,80
2017-06-05T05:52:30.617Z,80
2017-06-05T05:53:02.920Z,80
2017-06-05T05:53:35.200Z,80
2017-06-05T05:54:07.476Z,80
2017-06-05T05:54:39.762Z,80
2017-06-05T05:55:12.050Z,80
2017-06-05T05:55:44.333Z,80
2017-06-05T05:56:16.624Z,80
2017-06-05T05:56:48.885Z,80
2017-06-05T05:57:21.179Z,80
2017-06-05T05:57:53.459Z,80
2017-06-05T05:58:25.742Z,80
2017-06-05T05:58:58.028Z,80
2017-06-05T05:59:30.327Z,80
2017-06-05T06:00:02.613Z,80
2017-06-05T06:00:34.895Z,80
2017-06-05T06:01:07.174Z,80
2017-06-05T06:01:39.444Z,80
2017-06-05T06:02:11.751Z,80
2017-06-05T06:02:44.039Z,80
2017-06-05T06:03:16.327Z,80
2017-06-05T06:03:48.654Z,80
2017-06-05T06:04:20.941Z,80
2017-06-05T06:04:53.215Z,80
2017-06-05T06:05:25.489Z,80
2017-06-05T06:05:57.772Z,80
2017-06-05T06:06:30.055Z,80
2017-06-05T06:07:02.335Z,85
2017-06-05T06:07:34.621Z,85
2017-06-05T06:08:06.889Z,85
2017-06-05T06:08:39.164Z,85
2017-06-05T06:09:11.444Z,85
2017-06-05T06:09:43.726Z,85
2017-06-05T06:10:16.011Z,85
2017-06-05T06:10:48.289Z,85
2017-06-05T06:11:20.581Z,85
2017-06-05T06:11:52.860Z,85
2017-06-05T06:12:25.142Z,85
2017-06-05T06:12:57.421Z,90
2017-06-05T06:13:29.724Z,90
2017-06-05T06:14:02.004Z,90
2017-06-05T06:14:34.289Z,90
2017-06-05T06:15:06.565Z,90
2017-06-05T06:15:38.845Z,90
2017-06-05T06:16:11.126Z,90
2017-06-05T06:16:43.408Z,90
2017-06-05T06:17:15.687Z,95
2017-06-05T06:17:47.971Z,95
2017-06-05T06:18:20.253Z,95
2017-06-05T06:18:52.527Z,95
2017-06-05T06:19:24.804Z,90
2017-06-05T06:19:57.081Z,100
2017-06-05T06:20:29.369Z,100
2017-06-05T06:21:01.657Z,95
2017-06-05T06:21:33.940Z,100
2017-06-05T06:22:06.218Z,100
2017-06-05T06:22:38.484Z,100
2017-06-05T06:23:10.748Z,105
2017-06-05T06:23:43.019Z,105
2017-06-05T06:24:15.273Z,110
2017-06-05T06:24:47.637Z,110
2017-06-05T06:25:19.906Z,110
2017-06-05T06:25:52.187Z,110
2017-06-05T06:26:24.451Z,115
2017-06-05T06:26:56.708Z,115
2017-06-05T06:27:28.955Z,115
2017-06-05T06:28:01.202Z,115
2017-06-05T06:28:33.460Z,110
2017-06-05T06:29:05.712Z,115
2017-06-05T06:29:37.976Z,120
2017-06-05T06:30:10.244Z,120
2017-06-05T06:30:42.488Z,120
2017-06-05T06:31:14.754Z,120
2017-06-05T06:31:47.114Z,125
2017-06-05T06:32:19.358Z,120
2017-06-05T06:32:51.641Z,125
2017-06-05T06:33:23.924Z,125
2017-06-05T06:33:56.208Z,125
2017-06-05T06:34:28.489Z,130
2017-06-05T06:35:00.796Z,130
2017-06-05T06:35:33.076Z,125
2017-06-05T06:36:05.359Z,120
2017-06-05T06:36:37.647Z,115
2017-06-05T06:37:09.924Z,115
2017-06-05T06:37:42.206Z,120
2017-06-05T06:38:14.534Z,115
2017-06-05T06:38:46.849Z,120
2017-06-05T06:39:19.129Z,120
2017-06-05T06:39:51.405Z,125
2017-06-05T06:40:23.673Z,130
2017-06-05T06:40:55.982Z,130
2017-06-05T06:41:28.264Z,135
2017-06-05T06:42:00.548Z,135
2017-06-05T06:42:32.827Z,135
2017-06-05T06:43:05.089Z,135
2017-06-05T06:43:37.351Z,135
2017-06-05T06:44:09.614Z,135
2017-06-05T06:44:41.853Z,125
2017-06-05T06:45:14.984Z,135
2017-06-05T06:45:47.260Z,130
2017-06-05T06:46:19.533Z,135
2017-06-05T06:46:51.787Z,130
2017-06-05T06:47:24.037Z,130
2017-06-05T06:47:56.325Z,125
2017-06-05T06:48:28.571Z,120
2017-06-05T06:49:01.518Z,125
2017-06-05T06:49:33.774Z,125
2017-06-05T06:50:06.031Z,130
2017-06-05T06:50:38.283Z,130
2017-06-05T06:51:11.454Z,135
2017-06-05T06:51:43.704Z,140
2017-06-05T06:52:15.950Z,140
2017-06-05T06:52:48.229Z,130
2017-06-05T06:53:20.520Z,130
2017-06-05T06:53:52.799Z,130
2017-06-05T06:54:25.078Z,130
2017-06-05T06:54:57.367Z,130
2017-06-05T06:55:29.641Z,125
2017-06-05T06:56:01.907Z,135
2017-06-05T06:56:34.179Z,135
2017-06-05T06:57:06.461Z,135
2017-06-05T06:57:38.770Z,135
2017-06-05T06:58:11.051Z,140
2017-06-05T06:58:43.333Z,140
2017-06-05T06:59:15.594Z,145
2017-06-05T06:59:47.883Z,135
2017-06-05T07:00:20.167Z,145
2017-06-05T07:00:52.464Z,145
2017-06-05T07:01:24.737Z,135
2017-06-05T07:01:57.003Z,125
2017-06-05T07:02:29.284Z,130
2017-06-05T07:03:02.356Z,140
2017-06-05T07:03:34.612Z,135
2017-06-05T07:04:07.467Z,135
2017-06-05T07:04:39.727Z,140
2017-06-05T07:05:12.007Z,145
2017-06-05T07:05:44.262Z,145
2017-06-05T07:06:16.520Z,145
2017-06-05T07:06:49.478Z,135
2017-06-05T07:07:21.740Z,135
2017-06-05T07:07:53.979Z,145
2017-06-05T07:08:26.282Z,135
2017-06-05T07:08:58.554Z,140
2017-06-05T07:09:30.816Z,140
2017-06-05T07:10:03.100Z,140
2017-06-05T07:10:35.378Z,135
2017-06-05T07:11:08.312Z,135
2017-06-05T07:11:40.571Z,145
2017-06-05T07:12:12.822Z,150
2017-06-05T07:12:45.078Z,140
2017-06-05T07:13:17.318Z,150
2017-06-05T07:13:49.567Z,150
2017-06-05T07:14:22.502Z,145
2017-06-05T07:14:54.806Z,145
2017-06-05T07:15:27.906Z,150
2017-06-05T07:16:00.257Z,150
2017-06-05T07:16:33.526Z,150
2017-06-05T07:17:05.811Z,150
2017-06-05T07:17:38.057Z,150
2017-06-05T07:18:10.312Z,150
2017-06-05T07:18:42.597Z,140
2017-06-05T07:19:15.475Z,145
2017-06-05T07:19:47.738Z,145
2017-06-05T07:20:19.981Z,145
2017-06-05T07:20:52.254Z,150
2017-06-05T07:21:24.495Z,150
2017-06-05T07:21:57.483Z,150
2017-06-05T07:22:29.750Z,155
2017-06-05T07:23:02.025Z,145
2017-06-05T07:23:34.319Z,160
2017-06-05T07:24:06.600Z,155
2017-06-05T07:24:38.883Z,140
2017-06-05T07:25:11.182Z,145
2017-06-05T07:25:43.477Z,150
2017-06-05T07:26:15.750Z,150
2017-06-05T07:26:48.036Z,145
2017-06-05T07:27:20.313Z,135
2017-06-05T07:27:52.635Z,135
2017-06-05T07:28:24.915Z,140
2017-06-05T07:28:57.201Z,145
2017-06-05T07:29:29.494Z,150
2017-06-05T07:30:01.771Z,145
2017-06-05T07:30:34.049Z,145
2017-06-05T07:31:06.337Z,145
2017-06-05T07:31:38.653Z,150
2017-06-05T07:32:10.951Z,150
2017-06-05T07:32:43.228Z,155
2017-06-05T07:33:15.511Z,150
2017-06-05T07:33:47.799Z,150
2017-06-05T07:34:20.099Z,150
2017-06-05T07:34:52.397Z,145
2017-06-05T07:35:24.676Z,150
2017-06-05T07:35:56.995Z,150
2017-06-05T07:36:29.286Z,155
2017-06-05T07:37:01.563Z,155
2017-06-05T07:37:33.854Z,155
2017-06-05T07:38:06.145Z,155
2017-06-05T07:38:38.440Z,155
2017-06-05T07:39:10.717Z,155
2017-06-05T07:39:43.011Z,155
2017-06-05T07:40:15.284Z,155
2017-06-05T07:40:47.579Z,155
2017-06-05T07:41:19.867Z,155
2017-06-05T07:41:52.143Z,155
2017-06-05T07:42:24.417Z,155
2017-06-05T07:42:56.696Z,155
2017-06-05T07:43:28.972Z,160
2017-06-05T07:44:01.227Z,160
2017-06-05T07:44:33.492Z,160
2017-06-05T07:45:05.759Z,160